Time;durP1;ratioP1;P1;durP2;ratioP2;P2;SDS_P1;SDS_P2;PMS_P1;PMS_P2;Temp;Humidity;BMP_temperature;BMP_pressure;BME280_temperature;BME280_humidity;BME280_pressure;Samples;Min_cycle;Max_cycle;Signal;HPM_P1;HPM_P2
2023/10/10 05:24:14;;;;;;;26.30;18.23;;;;;;;17.65;72.70;100121.44;4911670;29;20052;-75
2023/10/10 05:26:47;;;;;;;36.33;19.15;;;;;;;17.64;73.34;100131.22;4916826;29;20480;-77
2023/10/10 05:29:19;;;;;;;25.67;18.60;;;;;;;17.66;72.82;100123.97;4917165;29;20120;-76
2023/10/10 05:31:59;;;;;;;25.60;19.23;;;;;;;17.63;73.51;100121.56;4901724;29;20090;-77
2023/10/10 05:34:27;;;;;;;22.42;17.63;;;;;;;17.67;72.99;100114.16;4914331;29;20078;-75
2023/10/10 05:36:54;;;;;;;26.45;18.05;;;;;;;17.68;72.75;100131.84;4916323;29;20087;-75
2023/10/10 05:39:21;;;;;;;18.48;15.13;;;;;;;17.67;72.67;100124.81;4915533;29;20477;-76
2023/10/10 05:41:54;;;;;;;20.35;16.38;;;;;;;17.64;73.15;100125.91;4913697;29;20048;-76
2023/10/10 05:44:21;;;;;;;21.38;16.15;;;;;;;17.64;72.84;100119.75;4916655;29;20051;-76
2023/10/10 05:46:48;;;;;;;19.30;14.27;;;;;;;17.65;72.92;100113.44;4916189;29;20127;-76
2023/10/10 05:49:17;;;;;;;20.08;14.05;;;;;;;17.62;73.01;100132.31;4916690;29;20462;-76
2023/10/10 05:51:44;;;;;;;22.27;14.98;;;;;;;17.61;72.59;100138.63;4911914;29;20048;-76
2023/10/10 05:54:11;;;;;;;17.98;14.50;;;;;;;17.59;72.70;100144.06;4914388;29;20051;-76
2023/10/10 05:56:38;;;;;;;19.20;14.68;;;;;;;17.58;72.49;100148.53;4916236;29;20494;-76
2023/10/10 05:59:04;;;;;;;25.17;15.27;;;;;;;17.57;72.50;100138.88;4916718;29;20040;-76
2023/10/10 06:01:31;;;;;;;23.25;16.08;;;;;;;17.57;72.69;100141.53;4911316;29;20060;-76
2023/10/10 06:03:57;;;;;;;19.05;14.43;;;;;;;17.57;72.65;100144.19;4910137;29;20139;-76
2023/10/10 06:06:27;;;;;;;20.23;16.63;;;;;;;17.57;72.65;100143.38;4915910;29;20097;-77
2023/10/10 06:09:00;;;;;;;24.95;17.27;;;;;;;17.57;72.82;100144.19;4915746;29;20040;-76
2023/10/10 06:11:29;;;;;;;;;;;;;;;17.58;73.23;100145.88;4916704;29;20048;-76
2023/10/10 06:13:56;;;;;;;18.50;14.70;;;;;;;17.64;72.30;100138.38;4915019;29;19930;-75
2023/10/10 06:16:23;;;;;;;19.58;16.35;;;;;;;17.63;72.45;100142.84;4908551;29;20052;-76
2023/10/10 06:18:50;;;;;;;19.95;15.85;;;;;;;17.63;72.64;100136.66;4911960;29;20048;-77
2023/10/10 06:21:18;;;;;;;20.27;16.10;;;;;;;17.63;72.95;100134.00;4916118;29;20520;-75
2023/10/10 06:23:45;;;;;;;19.25;16.00;;;;;;;17.64;73.11;100139.22;4915795;29;20052;-77
2023/10/10 06:26:12;;;;;;;21.70;16.02;;;;;;;17.65;73.20;100138.25;4911643;29;20489;-77
2023/10/10 06:28:45;;;;;;;22.23;16.17;;;;;;;17.66;72.87;100145.28;4915694;29;20100;-76
2023/10/10 06:31:19;;;;;;;20.52;15.10;;;;;;;17.65;73.49;100154.22;4916107;29;20107;-76
2023/10/10 06:33:50;;;;;;;20.67;16.27;;;;;;;17.69;72.84;100154.81;4913028;29;20048;-76
2023/10/10 06:41:43;;;;;;;21.20;16.10;;;;;;;17.70;73.52;100149.38;4915768;29;20044;-76
2023/10/10 06:44:17;;;;;;;19.65;15.02;;;;;;;17.73;73.15;100142.97;4913885;29;20564;-76
2023/10/10 06:46:48;;;;;;;20.48;16.48;;;;;;;17.74;73.18;100146.44;4907136;29;20087;-76
2023/10/10 06:49:15;;;;;;;24.52;17.25;;;;;;;17.74;73.18;100134.00;4915971;29;20048;-76
2023/10/10 06:51:42;;;;;;;23.02;16.80;;;;;;;17.75;73.16;100127.69;4915549;29;20398;-77
2023/10/10 06:54:19;;;;;;;20.40;16.67;;;;;;;17.77;73.16;100125.78;4914079;29;20044;-78
2023/10/10 06:59:29;;;;;;;21.65;15.98;;;;;;;17.83;73.28;100113.78;4915283;29;20055;-77
2023/10/10 07:01:59;;;;;;;15.82;13.70;;;;;;;17.84;73.66;100121.59;4915520;29;20051;-77
2023/10/10 07:04:27;;;;;;;22.45;15.93;;;;;;;17.89;73.64;100112.41;4915062;29;20631;-77
2023/10/10 07:07:00;;;;;;;18.42;15.88;;;;;;;17.92;73.62;100114.81;4907187;29;20148;-76
2023/10/10 07:09:27;;;;;;;23.30;17.52;;;;;;;17.95;73.36;100128.72;4915162;29;20046;-76
2023/10/10 07:11:55;;;;;;;24.17;19.60;;;;;;;17.98;73.24;100127.63;4912072;29;20585;-76
2023/10/10 07:14:25;;;;;;;26.40;21.85;;;;;;;18.01;73.18;100127.38;4901838;29;20051;-76
2023/10/10 07:16:56;;;;;;;27.77;21.15;;;;;;;18.03;73.11;100132.56;4914544;29;20048;-78
2023/10/10 07:19:30;;;;;;;25.38;20.63;;;;;;;18.03;73.04;100132.56;4914851;29;20044;-76
2023/10/10 07:21:57;;;;;;;;;;;;;;;18.01;73.73;100123.88;4915200;29;20048;-77
2023/10/10 07:24:28;;;;;;;27.70;19.35;;;;;;;18.06;72.66;100122.50;4910061;29;19923;-77
2023/10/10 07:27:18;;;;;;;24.48;19.98;;;;;;;18.05;72.88;100115.50;4914835;29;20044;-77
2023/10/10 07:32:17;;;;;;;34.17;22.88;;;;;;;18.07;73.44;100128.69;4914842;29;20079;-76
2023/10/10 07:34:51;;;;;;;30.33;21.77;;;;;;;18.07;73.20;100121.56;4912543;29;20060;-76
2023/10/10 07:37:18;;;;;;;35.47;21.92;;;;;;;18.10;73.26;100125.81;4914757;29;20087;-76
2023/10/10 07:42:29;;;;;;;36.80;21.90;;;;;;;18.10;73.89;100131.97;4914781;29;20100;-76
2023/10/10 07:44:56;;;;;;;35.97;21.93;;;;;;;18.15;73.58;100117.41;4910744;29;20063;-78
2023/10/10 07:47:26;;;;;;;33.08;21.30;;;;;;;18.16;73.47;100114.63;4910152;29;20115;-76
2023/10/10 07:49:55;;;;;;;42.35;23.90;;;;;;;18.19;73.61;100122.38;4914896;29;20055;-76
2023/10/10 07:52:22;;;;;;;35.22;20.05;;;;;;;18.20;73.47;100123.19;4914598;29;20044;-76
2023/10/10 07:55:03;;;;;;;33.80;20.52;;;;;;;18.21;73.58;100124.91;4906419;29;20060;-76
2023/10/10 07:57:55;;;;;;;32.20;19.50;;;;;;;18.25;73.79;100131.69;4914537;29;20074;-79
2023/10/10 08:00:18;;;;;;;45.00;22.02;;;;;;;18.27;73.78;100126.22;4914778;29;20052;-76
2023/10/10 08:02:49;;;;;;;39.08;22.30;;;;;;;18.29;74.00;100125.13;4914607;29;20049;-79
2023/10/10 08:05:19;;;;;;;47.28;23.75;;;;;;;18.31;74.03;100128.47;4913332;29;20052;-77
2023/10/10 08:07:46;;;;;;;45.58;24.90;;;;;;;18.36;74.22;100130.78;4914472;29;20139;-76
2023/10/10 08:10:14;;;;;;;42.42;25.67;;;;;;;18.39;74.07;100129.66;4917652;29;20083;-76
2023/10/10 08:12:42;;;;;;;59.35;27.88;;;;;;;18.41;74.29;100122.38;4918438;29;20127;-76
2023/10/10 08:15:24;;;;;;;64.05;27.35;;;;;;;18.43;73.99;100118.59;4913009;29;20059;-76
2023/10/10 08:17:54;;;;;;;60.55;30.70;;;;;;;18.46;74.09;100117.50;4918318;29;20111;-77
2023/10/10 08:23:08;;;;;;;61.17;34.20;;;;;;;18.51;73.92;100127.78;4918323;29;20489;-77
2023/10/10 08:25:37;;;;;;;64.63;33.90;;;;;;;18.53;73.98;100125.81;4915122;29;20044;-76
2023/10/10 08:28:05;;;;;;;74.47;37.63;;;;;;;18.55;74.24;100131.88;4911033;29;20095;-76
2023/10/10 08:30:32;;;;;;;71.82;38.08;;;;;;;18.58;74.26;100108.47;4918275;29;20056;-76
2023/10/10 08:33:00;;;;;;;86.72;42.85;;;;;;;18.64;74.39;100116.94;4917933;29;20144;-76
2023/10/10 08:35:29;;;;;;;93.07;44.72;;;;;;;18.68;74.39;100095.19;4911006;29;20580;-78
2023/10/10 08:37:57;;;;;;;92.32;43.22;;;;;;;18.74;74.58;100084.00;4917277;29;20099;-76
2023/10/10 08:40:30;;;;;;;88.38;47.15;;;;;;;18.83;74.39;100077.03;4917937;29;20465;-76
2023/10/10 08:42:58;;;;;;;87.78;46.60;;;;;;;18.89;73.90;100071.13;4917506;29;20056;-77
2023/10/10 08:45:25;;;;;;;89.53;49.22;;;;;;;18.96;74.07;100078.63;4907731;29;20087;-76
2023/10/10 08:48:01;;;;;;;94.40;49.85;;;;;;;19.00;74.14;100080.88;4917613;29;20052;-76
2023/10/10 08:50:28;;;;;;;89.90;50.53;;;;;;;19.08;74.12;100080.25;4917800;29;20112;-77
2023/10/10 08:52:54;;;;;;;85.75;50.53;;;;;;;19.16;74.14;100078.69;4917753;29;20063;-76
2023/10/10 08:55:26;;;;;;;84.25;49.10;;;;;;;19.22;73.56;100070.16;4912672;29;20104;-76
2023/10/10 08:57:53;;;;;;;90.45;50.65;;;;;;;19.27;73.52;100065.25;4917281;29;20410;-76
2023/10/10 09:00:19;;;;;;;83.28;49.28;;;;;;;19.33;73.39;100074.56;4917795;29;20080;-77
2023/10/10 09:02:48;;;;;;;89.15;50.10;;;;;;;19.36;72.75;100080.44;4916877;29;20060;-76
2023/10/10 09:05:16;;;;;;;88.97;50.33;;;;;;;19.42;72.83;100083.53;4910060;29;20450;-76
2023/10/10 09:07:43;;;;;;;87.35;51.75;;;;;;;19.47;73.42;100082.16;4917380;29;20147;-76
2023/10/10 09:10:15;;;;;;;83.47;50.45;;;;;;;19.54;73.42;100090.47;4917528;29;20087;-78
2023/10/10 09:12:58;;;;;;;82.95;49.72;;;;;;;19.64;73.71;100093.16;4917643;29;20463;-76
2023/10/10 09:15:25;;;;;;;79.22;48.47;;;;;;;19.74;73.47;100087.84;4906130;29;20048;-77
2023/10/10 09:17:59;;;;;;;79.80;50.22;;;;;;;19.85;73.48;100093.03;4916000;29;20060;-76
2023/10/10 09:20:28;;;;;;;79.78;48.78;;;;;;;19.97;73.38;100098.22;4916286;29;20493;-76
2023/10/10 09:23:11;;;;;;;82.47;49.00;;;;;;;20.07;73.28;100096.44;4917128;29;20140;-76
2023/10/10 09:25:48;;;;;;;72.85;46.58;;;;;;;20.21;72.95;100099.66;4912605;29;20087;-76
2023/10/10 09:28:18;;;;;;;75.47;46.30;;;;;;;20.28;72.14;100096.28;4917352;29;20040;-77
2023/10/10 09:33:23;;;;;;;66.70;46.50;;;;;;;20.42;70.93;100097.66;4917071;29;20052;-76
2023/10/10 09:35:58;;;;;;;72.32;44.60;;;;;;;20.44;70.48;100094.84;4899838;29;20048;-76
2023/10/10 09:38:35;;;;;;;67.70;43.08;;;;;;;20.44;70.19;100093.03;4917165;29;20488;-76
2023/10/10 09:41:14;;;;;;;62.13;42.60;;;;;;;20.44;70.06;100090.34;4916853;29;20058;-76
2023/10/10 09:44:00;;;;;;;65.10;42.22;;;;;;;20.46;70.06;100089.34;4915349;29;20052;-79
2023/10/10 09:46:53;;;;;;;63.88;41.25;;;;;;;20.47;69.98;100093.69;4908589;29;20047;-77
2023/10/10 09:49:40;;;;;;;65.03;42.65;;;;;;;20.48;70.09;100082.88;4915699;29;20575;-76
2023/10/10 09:58:00;;;;;;;63.40;40.30;;;;;;;20.48;69.62;100074.84;4911554;29;20052;-77
2023/10/10 10:00:47;;;;;;;58.80;38.13;;;;;;;20.54;69.86;100076.09;4910688;29;20135;-78
2023/10/10 10:09:14;;;;;;;52.13;34.22;;;;;;;20.57;68.83;100057.94;4909045;29;20056;-78
2023/10/10 10:11:51;;;;;;;51.05;32.20;;;;;;;20.58;68.97;100056.09;4916574;29;20067;-77
2023/10/10 10:14:35;;;;;;;52.38;31.75;;;;;;;20.62;68.68;100056.66;4916251;29;20044;-76
2023/10/10 10:17:45;;;;;;;46.58;31.15;;;;;;;20.60;68.54;100046.13;4913573;29;20059;-77
2023/10/10 10:20:21;;;;;;;46.75;30.38;;;;;;;20.67;69.09;100059.75;4908294;29;20176;-76
2023/10/10 10:22:53;;;;;;;45.47;31.65;;;;;;;20.69;69.17;100057.75;4916190;29;20055;-76
2023/10/10 10:25:25;;;;;;;44.88;31.40;;;;;;;20.72;69.00;100065.50;4915824;29;20116;-76
2023/10/10 10:28:00;;;;;;;45.67;28.33;;;;;;;20.78;68.35;100064.06;4913281;29;20119;-76
2023/10/10 10:32:58;;;;;;;44.45;28.42;;;;;;;20.92;68.53;100055.59;4915589;29;20080;-77
2023/10/10 10:39:19;;;;;;;37.95;25.95;;;;;;;21.08;68.33;100062.13;4891329;29;20064;-76
2023/10/10 10:41:42;;;;;;;41.83;26.98;;;;;;;21.16;68.89;100054.19;4915781;29;20329;-77
2023/10/10 10:44:12;;;;;;;38.08;25.30;;;;;;;21.27;68.52;100055.00;4915668;29;20055;-76
2023/10/10 10:46:47;;;;;;;34.05;23.50;;;;;;;21.35;67.46;100042.50;4915563;29;20059;-77
2023/10/10 10:49:14;;;;;;;35.50;24.00;;;;;;;21.47;67.50;100039.63;4913480;29;20047;-77
2023/10/10 10:51:47;;;;;;;38.42;23.33;;;;;;;21.54;66.63;100037.19;4913288;29;20126;-77
2023/10/10 10:54:35;;;;;;;37.65;22.48;;;;;;;21.64;65.32;100042.47;4915439;29;20051;-77
2023/10/10 10:57:03;;;;;;;35.03;22.05;;;;;;;21.78;66.54;100041.09;4915393;29;20087;-76
2023/10/10 10:59:36;;;;;;;32.17;22.15;;;;;;;21.84;65.90;100027.97;4908707;29;20071;-76
2023/10/10 11:02:12;;;;;;;30.65;19.90;;;;;;;21.95;66.52;100034.91;4906937;29;20127;-76
2023/10/10 11:04:43;;;;;;;31.65;20.17;;;;;;;22.05;66.73;100031.28;4915404;29;20055;-77
2023/10/10 11:07:16;;;;;;;29.60;19.85;;;;;;;22.21;67.07;100028.72;4915096;29;20060;-76
2023/10/10 11:09:52;;;;;;;31.67;19.05;;;;;;;22.38;66.96;100023.44;4911573;29;20052;-76
2023/10/10 11:12:28;;;;;;;27.23;18.15;;;;;;;22.60;66.54;100021.25;4910954;29;20048;-76
2023/10/10 11:14:56;;;;;;;24.13;17.40;;;;;;;22.81;65.92;100028.06;4915133;29;20052;-76
2023/10/10 11:17:24;;;;;;;27.73;15.90;;;;;;;23.00;65.35;100022.47;4915054;29;20051;-76
2023/10/10 11:19:55;;;;;;;20.95;14.60;;;;;;;23.21;64.06;100028.38;4913038;29;20060;-77
2023/10/10 11:25:27;;;;;;;18.02;12.45;;;;;;;23.52;62.16;100025.94;4902062;29;20524;-76
2023/10/10 11:27:55;;;;;;;20.35;11.23;;;;;;;23.60;60.83;100017.06;4914788;29;20104;-76
2023/10/10 11:30:25;;;;;;;18.65;11.05;;;;;;;23.67;59.70;100017.22;4911525;29;20056;-76
2023/10/10 11:33:16;;;;;;;16.85;11.65;;;;;;;23.80;61.06;100014.88;4911745;29;20138;-76
2023/10/10 11:35:39;;;;;;;17.20;10.52;;;;;;;24.04;61.45;100010.47;4909407;29;20075;-76
2023/10/10 11:38:16;;;;;;;14.68;9.05;;;;;;;24.33;60.94;100006.44;4914296;29;20056;-77
2023/10/10 11:40:52;;;;;;;12.85;8.88;;;;;;;24.72;60.86;100002.13;4906863;29;20048;-77
2023/10/10 11:43:21;;;;;;;11.98;8.90;;;;;;;25.20;60.79;100001.19;4908498;29;20075;-76
2023/10/10 11:45:51;;;;;;;13.35;8.18;;;;;;;25.69;59.56;99998.38;4921073;29;20457;-77
2023/10/10 11:48:18;;;;;;;12.98;8.23;;;;;;;26.21;58.37;99991.31;4921183;29;20112;-77
2023/10/10 11:50:49;;;;;;;12.52;8.40;;;;;;;26.72;54.73;99983.53;4914933;29;20096;-76
2023/10/10 11:53:23;;;;;;;13.00;8.23;;;;;;;27.22;55.10;99985.56;4918156;29;20488;-76
2023/10/10 11:55:54;;;;;;;14.55;7.20;;;;;;;27.69;54.87;99989.56;4921105;29;20139;-76
2023/10/10 11:58:35;;;;;;;11.80;7.68;;;;;;;28.16;53.49;99991.78;4921427;29;20043;-77
2023/10/10 12:01:05;;;;;;;8.80;6.45;;;;;;;28.66;53.02;99993.53;4913459;29;20477;-76
2023/10/10 12:06:26;;;;;;;10.90;6.72;;;;;;;29.57;50.40;99996.13;4920905;29;20632;-76
2023/10/10 12:08:53;;;;;;;9.95;6.70;;;;;;;30.02;49.42;99990.03;4921259;29;20142;-77
2023/10/10 12:11:21;;;;;;;9.10;6.85;;;;;;;30.38;48.07;99981.66;4913493;29;20135;-77
2023/10/10 12:13:50;;;;;;;11.88;6.90;;;;;;;30.68;46.03;99979.25;4916791;29;20059;-77
2023/10/10 12:16:28;;;;;;;10.55;6.70;;;;;;;30.98;46.30;99974.34;4920346;29;20135;-77
2023/10/10 12:19:08;;;;;;;10.57;6.32;;;;;;;31.30;45.36;99975.19;4920449;29;20052;-77
2023/10/10 12:21:34;;;;;;;8.13;6.18;;;;;;;31.55;44.31;99979.00;4919135;29;20094;-76
2023/10/10 12:24:01;;;;;;;10.20;6.75;;;;;;;31.77;43.40;99968.53;4918785;29;20088;-77
2023/10/10 12:26:29;;;;;;;9.27;6.03;;;;;;;32.00;42.71;99966.28;4916468;29;20063;-76
2023/10/10 12:28:57;;;;;;;9.00;5.53;;;;;;;32.21;42.64;99965.84;4921189;29;20051;-76
2023/10/10 12:31:23;;;;;;;9.07;5.85;;;;;;;32.43;42.10;99970.81;4910255;29;20107;-76
2023/10/10 12:33:53;;;;;;;9.75;6.05;;;;;;;32.64;41.29;99963.28;4916424;29;20464;-76
2023/10/10 12:36:28;;;;;;;11.05;6.05;;;;;;;32.86;41.12;99952.69;4920460;29;20044;-77
2023/10/10 12:38:57;;;;;;;9.00;5.60;;;;;;;33.10;40.49;99947.34;4920654;29;20087;-76
2023/10/10 12:41:27;;;;;;;7.55;5.03;;;;;;;33.30;38.40;99940.75;4912761;29;20493;-76
2023/10/10 12:43:54;;;;;;;8.30;5.78;;;;;;;33.50;39.90;99936.88;4907869;29;20052;-76
2023/10/10 12:46:21;;;;;;;11.65;5.97;;;;;;;33.67;39.46;99929.66;4920106;29;20185;-75
2023/10/10 12:48:51;;;;;;;9.82;5.85;;;;;;;33.86;38.33;99929.53;4920717;29;20078;-77
2023/10/10 12:51:22;;;;;;;11.00;6.22;;;;;;;33.99;37.31;99924.88;4918020;29;20476;-76
2023/10/10 12:53:49;;;;;;;7.13;5.65;;;;;;;33.97;35.91;99922.38;4915780;29;20087;-77
2023/10/10 12:56:17;;;;;;;10.77;5.28;;;;;;;33.80;34.78;99925.03;4917828;29;20052;-77
2023/10/10 12:58:51;;;;;;;10.13;5.50;;;;;;;33.49;34.99;99933.28;4917594;29;20553;-75
2023/10/10 13:01:25;;;;;;;10.65;5.53;;;;;;;33.06;34.83;99924.34;4917563;29;20059;-76
2023/10/10 13:03:51;;;;;;;6.25;4.82;;;;;;;32.66;35.49;99924.91;4904892;29;20061;-76
2023/10/10 13:06:22;;;;;;;8.18;5.45;;;;;;;32.21;35.80;99924.13;4910192;29;20048;-75
2023/10/10 13:08:55;;;;;;;8.00;5.47;;;;;;;31.76;35.67;99915.16;4917601;29;20100;-76
2023/10/10 13:11:43;;;;;;;;;;;;;;;31.32;39.26;99912.44;4917818;29;20485;-76
2023/10/10 13:14:18;;;;;;;7.55;4.80;;;;;;;30.91;36.61;99920.84;4912054;29;19966;-76
2023/10/10 13:19:12;;;;;;;10.00;5.15;;;;;;;30.01;37.54;99919.72;4917231;29;20091;-76
2023/10/10 13:21:41;;;;;;;9.43;5.03;;;;;;;29.61;38.39;99921.44;4917281;29;20048;-76
2023/10/10 13:24:11;;;;;;;9.73;4.93;;;;;;;29.26;37.92;99918.88;4914852;29;20498;-76
2023/10/10 13:26:49;;;;;;;9.00;5.72;;;;;;;28.92;38.13;99924.25;4916920;29;20052;-76
2023/10/10 13:29:17;;;;;;;6.90;5.07;;;;;;;28.66;38.88;99928.53;4912779;29;20056;-76
2023/10/10 13:31:49;;;;;;;8.82;5.00;;;;;;;28.42;38.64;99928.03;4917011;29;20737;-75
2023/10/10 13:34:18;;;;;;;8.98;5.47;;;;;;;28.22;39.33;99919.81;4916922;29;20112;-76
2023/10/10 13:36:45;;;;;;;8.75;4.97;;;;;;;28.04;38.84;99913.03;4916639;29;20048;-75
2023/10/10 13:39:16;;;;;;;10.52;6.15;;;;;;;27.92;39.27;99920.84;4914645;29;20091;-77
2023/10/10 13:41:42;;;;;;;10.50;5.97;;;;;;;27.86;39.83;99924.38;4917067;29;20052;-76
2023/10/10 13:44:10;;;;;;;14.65;5.88;;;;;;;27.87;40.30;99914.38;4915574;29;20135;-77
2023/10/10 13:46:37;;;;;;;8.63;5.45;;;;;;;27.93;41.11;99910.88;4916625;29;20056;-76
2023/10/10 13:49:08;;;;;;;9.18;5.43;;;;;;;28.02;40.62;99912.41;4910414;29;20048;-75
2023/10/10 13:51:41;;;;;;;10.20;5.47;;;;;;;28.10;39.91;99912.25;4910259;29;20044;-76
2023/10/10 13:54:07;;;;;;;;;;;;;;;28.11;42.26;99902.25;4917239;29;20048;-76
2023/10/10 13:56:34;;;;;;;6.43;4.90;;;;;;;28.12;39.89;99911.19;4916234;29;19931;-77
2023/10/10 13:59:01;;;;;;;7.00;5.20;;;;;;;28.00;39.95;99909.06;4913398;29;20513;-76
2023/10/10 14:04:13;;;;;;;10.32;5.40;;;;;;;27.62;39.63;99904.84;4916360;29;20076;-76
2023/10/10 14:06:47;;;;;;;12.00;5.90;;;;;;;27.40;39.99;99896.75;4915738;29;20061;-77
2023/10/10 14:09:36;;;;;;;8.75;5.63;;;;;;;27.18;40.10;99902.16;4915516;29;20063;-76
2023/10/10 14:12:21;;;;;;;9.38;5.82;;;;;;;26.95;40.84;99898.84;4915278;29;20056;-76
2023/10/10 14:14:48;;;;;;;9.40;5.60;;;;;;;26.78;40.91;99899.03;4915907;29;20139;-77
2023/10/10 14:17:14;;;;;;;10.18;5.40;;;;;;;26.69;41.63;99892.94;4916049;29;20139;-76
2023/10/10 14:19:41;;;;;;;9.20;5.32;;;;;;;26.66;41.77;99888.72;4913042;29;20127;-77
2023/10/10 14:22:10;;;;;;;7.68;5.38;;;;;;;26.68;41.96;99885.84;4903596;29;20076;-76
2023/10/10 14:24:37;;;;;;;8.57;5.38;;;;;;;26.72;41.44;99884.44;4914058;29;20052;-76
2023/10/10 14:27:05;;;;;;;8.93;5.25;;;;;;;26.83;42.04;99885.78;4915678;29;20217;-75
2023/10/10 14:29:41;;;;;;;12.25;5.88;;;;;;;27.03;42.10;99879.81;4915971;29;20048;-76
2023/10/10 14:32:10;;;;;;;8.88;5.28;;;;;;;27.32;42.32;99884.22;4908876;29;20747;-76
2023/10/10 14:34:52;;;;;;;9.45;5.43;;;;;;;27.65;41.62;99882.81;4916014;29;20052;-76
2023/10/10 14:37:19;;;;;;;12.55;5.97;;;;;;;27.92;41.16;99883.00;4915287;29;20096;-76
2023/10/10 14:40:09;;;;;;;9.77;5.13;;;;;;;28.19;40.79;99882.31;4914573;29;20675;-76
2023/10/10 14:42:35;;;;;;;9.95;5.18;;;;;;;28.37;40.60;99870.97;4915559;29;20074;-76
2023/10/10 14:45:06;;;;;;;8.75;5.00;;;;;;;28.49;39.97;99873.91;4915396;29;20139;-76
2023/10/10 14:47:36;;;;;;;8.93;5.50;;;;;;;28.51;39.64;99871.00;4915532;29;20059;-77
2023/10/10 14:50:07;;;;;;;8.15;5.05;;;;;;;28.43;39.03;99867.44;4915588;29;20138;-76
2023/10/10 14:52:35;;;;;;;11.05;5.80;;;;;;;28.28;38.71;99869.44;4903286;29;20120;-75
2023/10/10 14:55:05;;;;;;;12.65;6.13;;;;;;;28.04;38.77;99869.75;4914177;29;20044;-77
2023/10/10 14:57:34;;;;;;;10.35;5.75;;;;;;;27.77;38.94;99866.06;4915151;29;20048;-76
2023/10/10 15:00:00;;;;;;;13.30;6.25;;;;;;;27.46;39.14;99859.97;4915588;29;20142;-75
2023/10/10 15:02:27;;;;;;;11.30;5.63;;;;;;;27.16;39.65;99865.56;4903996;29;20117;-76
2023/10/10 15:04:54;;;;;;;8.82;5.35;;;;;;;26.83;39.99;99864.19;4911301;29;20056;-76
2023/10/10 15:07:21;;;;;;;10.80;5.45;;;;;;;26.56;40.52;99865.75;4915329;29;20048;-76
2023/10/10 15:09:47;;;;;;;9.82;5.20;;;;;;;26.32;40.91;99863.25;4915604;29;20119;-76
2023/10/10 15:12:14;;;;;;;8.27;5.90;;;;;;;26.10;41.45;99859.59;4912746;29;20088;-76
2023/10/10 15:14:42;;;;;;;11.85;5.40;;;;;;;25.90;41.49;99857.44;4915036;29;20091;-76
2023/10/10 15:17:09;;;;;;;11.77;5.65;;;;;;;25.70;41.97;99846.38;4915015;29;20052;-75
2023/10/10 15:19:36;;;;;;;11.65;5.40;;;;;;;25.52;42.27;99850.25;4914594;29;20052;-76
2023/10/10 15:22:03;;;;;;;10.60;5.57;;;;;;;25.35;42.70;99844.19;4909826;29;20124;-76
2023/10/10 15:24:32;;;;;;;10.05;5.53;;;;;;;25.21;42.83;99838.59;4906505;29;20052;-75
2023/10/10 15:26:59;;;;;;;9.48;5.43;;;;;;;25.09;43.36;99832.78;4914989;29;20087;-77
2023/10/10 15:29:26;;;;;;;11.13;5.47;;;;;;;24.98;43.38;99830.53;4915030;29;20120;-75
2023/10/10 15:31:56;;;;;;;11.15;6.70;;;;;;;24.87;43.82;99837.16;4913976;29;20059;-76
2023/10/10 15:34:23;;;;;;;11.57;5.07;;;;;;;24.75;43.59;99834.03;4908781;29;20048;-75
2023/10/10 15:36:50;;;;;;;8.98;5.78;;;;;;;24.66;43.90;99827.00;4914629;29;20052;-75
2023/10/10 15:39:16;;;;;;;10.98;6.30;;;;;;;24.56;44.01;99841.53;4914955;29;20048;-76
2023/10/10 15:41:44;;;;;;;13.25;6.03;;;;;;;24.49;44.31;99845.13;4915148;29;20155;-74
2023/10/10 15:44:12;;;;;;;9.05;5.50;;;;;;;24.39;44.28;99848.03;4911434;29;20073;-76
2023/10/10 15:46:40;;;;;;;10.18;5.60;;;;;;;24.31;44.73;99849.75;4914739;29;20052;-76
2023/10/10 15:49:12;;;;;;;10.55;5.20;;;;;;;24.24;44.70;99842.56;4914980;29;20469;-76
2023/10/10 15:52:03;;;;;;;10.82;5.43;;;;;;;24.17;45.13;99839.72;4913781;29;20642;-75
2023/10/10 15:54:33;;;;;;;10.18;6.03;;;;;;;24.08;45.19;99837.03;4901117;29;20417;-76
2023/10/10 15:57:08;;;;;;;11.70;5.63;;;;;;;24.02;45.22;99836.91;4914243;29;20405;-77
2023/10/10 15:59:41;;;;;;;10.02;5.57;;;;;;;23.94;45.67;99838.63;4914917;29;20067;-76
2023/10/10 16:02:09;;;;;;;;;;;;;;;23.85;45.83;99830.75;4915309;29;20477;-76
2023/10/10 16:04:42;;;;;;;9.95;5.55;;;;;;;23.84;45.69;99829.09;4905624;29;19934;-75
2023/10/10 16:07:09;;;;;;;13.35;6.40;;;;;;;23.72;45.66;99836.66;4914636;29;20080;-76
2023/10/10 16:09:35;;;;;;;8.82;5.50;;;;;;;23.63;46.20;99838.53;4914854;29;20040;-76
2023/10/10 16:12:07;;;;;;;13.35;5.80;;;;;;;23.53;46.45;99826.13;4914657;29;20577;-76
2023/10/10 16:14:36;;;;;;;10.13;5.70;;;;;;;23.44;46.36;99832.53;4907236;29;20045;-77
2023/10/10 16:17:03;;;;;;;10.88;5.68;;;;;;;23.36;46.76;99830.69;4914601;29;20063;-76
2023/10/10 16:19:32;;;;;;;13.23;6.57;;;;;;;23.28;46.95;99838.72;4914576;29;20136;-76
2023/10/10 16:22:01;;;;;;;14.48;6.13;;;;;;;23.21;47.03;99832.34;4914888;29;20044;-77
2023/10/10 16:24:27;;;;;;;14.43;6.70;;;;;;;23.12;47.30;99836.88;4906976;29;20417;-76
2023/10/10 16:27:02;;;;;;;10.75;6.13;;;;;;;23.02;47.81;99832.50;4908192;29;20048;-76
2023/10/10 16:29:35;;;;;;;13.50;5.80;;;;;;;22.95;47.68;99836.88;4910816;29;20131;-76
2023/10/10 16:32:07;;;;;;;9.88;5.57;;;;;;;22.88;48.24;99835.88;4918166;29;20050;-76
2023/10/10 16:34:38;;;;;;;12.27;6.07;;;;;;;22.81;48.35;99841.06;4918348;29;20047;-75
2023/10/10 16:37:13;;;;;;;12.10;6.43;;;;;;;22.74;48.06;99832.84;4917860;29;20119;-76
2023/10/10 16:39:44;;;;;;;10.75;5.82;;;;;;;22.69;48.24;99823.59;4909376;29;20090;-77
2023/10/10 16:42:11;;;;;;;11.32;5.38;;;;;;;22.64;48.39;99824.94;4917955;29;20511;-76
2023/10/10 16:44:37;;;;;;;12.15;5.90;;;;;;;22.59;48.34;99829.13;4917863;29;20107;-75
2023/10/10 16:47:04;;;;;;;13.65;5.70;;;;;;;22.55;48.45;99827.75;4917961;29;20058;-75
2023/10/10 16:49:31;;;;;;;9.18;5.78;;;;;;;22.50;48.59;99821.00;4911476;29;20140;-77
2023/10/10 16:51:57;;;;;;;13.05;5.38;;;;;;;22.46;48.38;99821.53;4917616;29;20134;-76
2023/10/10 16:54:24;;;;;;;11.25;5.57;;;;;;;22.43;48.75;99827.22;4917755;29;20139;-75
2023/10/10 16:56:53;;;;;;;13.45;5.95;;;;;;;22.38;48.97;99825.84;4917604;29;20135;-75
2023/10/10 16:59:20;;;;;;;10.68;5.32;;;;;;;22.36;48.90;99824.34;4913863;29;20071;-75
2023/10/10 17:01:46;;;;;;;10.27;5.43;;;;;;;22.33;49.32;99819.28;4914134;29;20079;-75
2023/10/10 17:04:13;;;;;;;11.43;5.25;;;;;;;22.30;49.09;99824.97;4916361;29;20485;-76
2023/10/10 17:06:48;;;;;;;10.77;5.60;;;;;;;22.26;49.21;99821.78;4917382;29;20058;-75
2023/10/10 17:09:15;;;;;;;12.15;5.55;;;;;;;22.23;49.35;99822.09;4916948;29;20040;-75
2023/10/10 17:11:42;;;;;;;11.55;5.25;;;;;;;22.17;49.16;99818.25;4915594;29;20059;-76
2023/10/10 17:14:12;;;;;;;12.55;5.32;;;;;;;22.13;49.18;99820.41;4917413;29;20135;-75
2023/10/10 17:16:39;;;;;;;12.38;5.43;;;;;;;22.09;49.22;99820.91;4917017;29;20401;-76
2023/10/10 17:19:06;;;;;;;10.27;4.93;;;;;;;22.05;49.11;99822.22;4917446;29;20516;-75
2023/10/10 17:21:47;;;;;;;10.85;5.88;;;;;;;22.00;48.81;99826.22;4912440;29;20488;-76
2023/10/10 17:24:15;;;;;;;8.73;5.35;;;;;;;21.95;49.25;99819.66;4911322;29;20676;-75
2023/10/10 17:26:43;;;;;;;10.30;5.43;;;;;;;21.91;49.36;99808.44;4917235;29;20052;-76
2023/10/10 17:29:14;;;;;;;9.95;5.75;;;;;;;21.90;49.33;99822.00;4917231;29;20131;-75
2023/10/10 17:31:41;;;;;;;13.40;5.50;;;;;;;21.85;49.28;99811.75;4909468;29;20063;-75
2023/10/10 17:34:08;;;;;;;11.55;5.63;;;;;;;21.80;49.44;99816.75;4917135;29;20131;-76
2023/10/10 17:36:41;;;;;;;10.35;5.20;;;;;;;21.77;49.56;99817.91;4916617;29;20044;-75
2023/10/10 17:39:15;;;;;;;18.20;6.80;;;;;;;21.73;49.41;99811.19;4915694;29;20048;-75
2023/10/10 17:41:47;;;;;;;14.45;6.00;;;;;;;21.69;49.79;99804.44;4913232;29;20053;-76
2023/10/10 17:44:15;;;;;;;14.77;5.70;;;;;;;21.67;49.92;99811.78;4915891;29;20072;-77
2023/10/10 17:46:42;;;;;;;17.55;6.63;;;;;;;21.63;49.87;99808.56;4916736;29;20052;-76